Time;durP1;ratioP1;P1;durP2;ratioP2;P2;SDS_P1;SDS_P2;PMS_P1;PMS_P2;Temp;Humidity;BMP_temperature;BMP_pressure;BME280_temperature;BME280_humidity;BME280_pressure;Samples;Min_cycle;Max_cycle;Signal;HPM_P1;HPM_P2
2021/05/31 00:01:42;;;;;;;3.58;2.20;;;14.40;62.50;;;;;;4126507;28;20118;-63
2021/05/31 00:03:45;;;;;;;2.65;1.90;;;14.50;62.60;;;;;;4123858;28;20056;-62
2021/05/31 00:05:47;;;;;;;4.40;2.17;;;14.40;62.40;;;;;;4127080;28;20065;-63
2021/05/31 00:07:49;;;;;;;3.20;2.25;;;14.40;62.30;;;;;;4124659;28;20426;-63
2021/05/31 00:09:55;;;;;;;3.78;2.03;;;14.40;62.40;;;;;;4130368;28;20052;-64
2021/05/31 00:11:58;;;;;;;4.03;2.30;;;14.50;62.40;;;;;;4123591;28;20450;-62
2021/05/31 00:14:01;;;;;;;4.50;2.25;;;14.40;62.30;;;;;;4123330;28;20123;-62
2021/05/31 00:16:03;;;;;;;3.17;2.10;;;14.40;62.30;;;;;;4124827;28;20041;-64
2021/05/31 00:18:05;;;;;;;4.32;2.13;;;14.50;62.30;;;;;;4128142;28;20556;-63
2021/05/31 00:20:10;;;;;;;3.30;2.30;;;14.50;62.30;;;;;;4126184;28;20127;-63
2021/05/31 00:22:12;;;;;;;4.78;2.10;;;14.50;62.20;;;;;;4126832;28;20045;-63
2021/05/31 00:24:15;;;;;;;4.03;2.30;;;14.50;62.20;;;;;;4126466;28;20533;-63
2021/05/31 00:26:18;;;;;;;3.20;2.10;;;14.50;62.10;;;;;;4114055;28;20542;-63
2021/05/31 00:28:20;;;;;;;3.45;2.38;;;14.50;62.20;;;;;;4127590;28;20040;-63
2021/05/31 00:30:23;;;;;;;3.20;1.90;;;14.50;62.10;;;;;;4127726;28;20124;-63
2021/05/31 00:32:26;;;;;;;3.08;1.95;;;14.50;62.20;;;;;;4126720;28;20351;-64
2021/05/31 00:34:28;;;;;;;4.07;2.30;;;14.50;62.20;;;;;;4127532;28;20138;-63
2021/05/31 00:36:30;;;;;;;3.90;2.13;;;14.50;62.20;;;;;;4128302;28;20049;-63
2021/05/31 00:38:33;;;;;;;2.80;2.10;;;14.50;62.30;;;;;;4124200;28;20053;-63
2021/05/31 00:40:35;;;;;;;4.78;2.13;;;14.50;62.30;;;;;;4125737;28;20060;-63
2021/05/31 00:42:37;;;;;;;4.22;2.17;;;14.50;62.30;;;;;;4123991;28;20060;-64
2021/05/31 00:44:40;;;;;;;5.68;2.38;;;14.50;62.30;;;;;;4124997;28;20129;-63
2021/05/31 00:46:42;;;;;;;3.65;2.10;;;14.50;62.50;;;;;;4127837;28;20026;-64
2021/05/31 00:48:44;;;;;;;5.40;2.55;;;14.50;62.50;;;;;;4125030;28;20404;-64
2021/05/31 00:50:46;;;;;;;5.13;2.80;;;14.50;62.70;;;;;;4124821;28;20038;-63
2021/05/31 00:52:49;;;;;;;5.63;2.15;;;14.50;62.70;;;;;;4123022;28;20256;-63
2021/05/31 00:54:51;;;;;;;6.60;2.55;;;14.50;62.80;;;;;;4125927;28;21032;-63
2021/05/31 00:56:53;;;;;;;4.13;2.40;;;14.50;62.90;;;;;;4124670;28;20641;-64
2021/05/31 00:58:59;;;;;;;5.70;2.28;;;14.50;62.90;;;;;;4124811;28;20036;-64
2021/05/31 01:01:03;;;;;;;4.28;2.28;;;14.50;63.00;;;;;;4125849;28;20034;-62
2021/05/31 01:03:05;;;;;;;4.47;2.17;;;14.50;63.20;;;;;;4121744;28;20053;-63
2021/05/31 01:05:08;;;;;;;5.28;2.42;;;14.60;63.50;;;;;;4124757;28;20435;-64
2021/05/31 01:07:30;;;;;;;7.25;2.45;;;14.60;63.80;;;;;;4127031;28;20025;-64
2021/05/31 01:09:55;;;;;;;4.47;2.42;;;14.60;64.20;;;;;;4122478;28;20140;-64
2021/05/31 01:12:00;;;;;;;5.07;2.50;;;14.60;64.60;;;;;;4125170;28;20077;-64
2021/05/31 01:14:10;;;;;;;5.78;2.83;;;14.60;65.10;;;;;;4129685;28;20029;-64
2021/05/31 01:16:37;;;;;;;4.97;2.42;;;14.60;65.50;;;;;;4134787;28;20026;-64
2021/05/31 01:18:44;;;;;;;5.68;2.47;;;14.60;66.10;;;;;;4133258;28;20072;-65
2021/05/31 01:21:14;;;;;;;7.22;2.80;;;14.60;66.40;;;;;;4143334;28;20045;-63
2021/05/31 01:23:17;;;;;;;6.88;2.70;;;14.60;66.80;;;;;;4121577;28;20069;-63
2021/05/31 01:25:55;;;;;;;5.45;2.65;;;14.70;67.60;;;;;;4126622;28;20041;-64
2021/05/31 01:28:12;;;;;;;6.18;2.45;;;14.70;67.90;;;;;;4082359;28;20096;-64
2021/05/31 01:30:17;;;;;;;4.00;2.20;;;14.70;68.10;;;;;;4125709;28;20517;-64
2021/05/31 01:32:26;;;;;;;6.38;2.67;;;14.70;68.50;;;;;;4121454;28;20336;-64
2021/05/31 01:34:31;;;;;;;8.02;2.60;;;14.70;68.80;;;;;;4126071;28;20567;-64
2021/05/31 01:36:38;;;;;;;4.90;2.83;;;14.70;69.00;;;;;;4123480;28;20041;-63
2021/05/31 01:38:42;;;;;;;8.02;3.47;;;14.80;69.40;;;;;;4122937;28;20309;-63
2021/05/31 01:40:46;;;;;;;6.72;2.83;;;14.80;69.50;;;;;;4126309;28;20791;-64
2021/05/31 01:42:53;;;;;;;7.22;3.00;;;14.80;70.00;;;;;;4111843;28;20178;-64
2021/05/31 01:44:55;;;;;;;6.53;3.10;;;14.80;70.20;;;;;;4112255;28;20038;-64
2021/05/31 01:46:58;;;;;;;8.90;3.13;;;14.80;70.50;;;;;;4124200;28;20033;-64
2021/05/31 01:49:01;;;;;;;7.50;3.10;;;14.80;70.60;;;;;;4126695;28;20029;-64
2021/05/31 01:51:03;;;;;;;8.30;3.35;;;14.90;70.90;;;;;;4121821;28;20187;-65
2021/05/31 01:53:06;;;;;;;10.43;3.05;;;14.90;71.10;;;;;;4122202;28;22014;-63
2021/05/31 01:55:10;;;;;;;11.65;3.25;;;14.90;71.20;;;;;;4122949;28;20553;-63
2021/05/31 01:57:12;;;;;;;7.70;3.97;;;14.90;71.40;;;;;;4123696;28;20055;-62
2021/05/31 01:59:16;;;;;;;8.07;3.90;;;15.00;71.40;;;;;;4121709;28;20041;-64
2021/05/31 02:01:19;;;;;;;9.82;3.70;;;15.00;71.40;;;;;;4126096;28;20282;-64
2021/05/31 02:03:21;;;;;;;10.18;3.35;;;15.00;71.50;;;;;;4122500;28;20053;-64
2021/05/31 02:05:23;;;;;;;12.15;3.65;;;15.00;71.50;;;;;;4124092;28;20187;-64
2021/05/31 02:07:26;;;;;;;10.27;3.97;;;15.10;71.90;;;;;;4124453;28;20470;-64
2021/05/31 02:09:28;;;;;;;10.82;4.15;;;15.10;72.00;;;;;;4123457;28;21769;-65
2021/05/31 02:11:47;;;;;;;9.55;3.72;;;15.10;72.00;;;;;;4123478;28;20103;-65
2021/05/31 02:13:53;;;;;;;11.57;4.00;;;15.10;71.90;;;;;;4122594;28;20876;-65
2021/05/31 02:16:11;;;;;;;9.00;3.55;;;15.20;72.00;;;;;;4126060;28;20025;-65
2021/05/31 02:18:35;;;;;;;11.23;4.00;;;15.20;72.00;;;;;;4122582;28;20622;-65
2021/05/31 02:20:38;;;;;;;13.70;4.07;;;15.20;71.60;;;;;;4124366;28;20053;-64
2021/05/31 02:23:01;;;;;;;12.55;3.90;;;15.30;71.40;;;;;;4122535;28;20045;-63
2021/05/31 02:25:04;;;;;;;17.63;3.78;;;15.30;71.20;;;;;;4126540;28;20029;-64
2021/05/31 02:27:07;;;;;;;12.93;3.55;;;15.30;71.10;;;;;;4127000;28;20061;-63
2021/05/31 02:29:09;;;;;;;10.17;3.87;;;15.30;70.80;;;;;;4127246;28;20046;-65
2021/05/31 02:31:11;;;;;;;9.43;3.45;;;15.40;70.90;;;;;;4128615;28;20280;-64
2021/05/31 02:33:14;;;;;;;7.13;3.50;;;15.40;70.70;;;;;;4125888;28;20249;-64
2021/05/31 02:35:16;;;;;;;9.25;3.10;;;15.40;70.40;;;;;;4127277;28;20048;-64
2021/05/31 02:37:24;;;;;;;7.07;3.15;;;15.40;70.10;;;;;;4125091;28;20042;-67
2021/05/31 02:39:27;;;;;;;5.53;2.55;;;15.40;69.90;;;;;;4126635;28;20041;-68
2021/05/31 02:41:29;;;;;;;14.20;2.88;;;15.50;69.70;;;;;;4123971;28;20068;-67
2021/05/31 02:43:31;;;;;;;17.92;3.28;;;15.50;69.70;;;;;;4125621;28;20420;-64
2021/05/31 02:45:34;;;;;;;13.55;2.90;;;15.60;69.60;;;;;;4126357;28;20456;-66
2021/05/31 02:47:37;;;;;;;5.00;2.33;;;15.50;69.40;;;;;;4126978;28;20547;-66
2021/05/31 02:49:39;;;;;;;7.20;2.17;;;15.60;69.30;;;;;;4126986;28;20639;-65
2021/05/31 02:51:42;;;;;;;6.88;2.40;;;15.60;69.90;;;;;;4125897;28;20041;-64
2021/05/31 02:53:44;;;;;;;8.15;2.50;;;15.60;69.20;;;;;;4121815;28;20049;-71
2021/05/31 02:55:46;;;;;;;9.95;2.60;;;15.60;69.00;;;;;;4125297;28;20071;-71
2021/05/31 02:57:49;;;;;;;7.30;2.33;;;15.70;69.00;;;;;;4125774;28;20221;-71
2021/05/31 02:59:52;;;;;;;8.48;2.28;;;15.70;69.10;;;;;;4125242;28;21181;-71
2021/05/31 03:01:54;;;;;;;5.53;2.25;;;15.80;69.10;;;;;;4122945;28;20049;-71
2021/05/31 03:03:57;;;;;;;4.55;1.83;;;15.80;69.00;;;;;;4124958;28;20029;-70
2021/05/31 03:05:59;;;;;;;6.50;2.07;;;15.80;69.10;;;;;;4124810;28;20129;-69
2021/05/31 03:08:01;;;;;;;5.72;1.95;;;15.90;69.00;;;;;;4123172;28;20544;-69
2021/05/31 03:10:05;;;;;;;5.63;2.08;;;15.90;69.00;;;;;;4126207;28;20026;-71
2021/05/31 03:12:08;;;;;;;12.40;2.25;;;15.90;69.00;;;;;;4125474;28;20041;-68
2021/05/31 03:14:11;;;;;;;12.82;2.17;;;16.00;68.90;;;;;;4122800;28;20049;-71
2021/05/31 03:16:13;;;;;;;7.55;1.67;;;16.00;69.00;;;;;;4125523;28;20023;-68
2021/05/31 03:18:15;;;;;;;6.78;2.40;;;16.00;69.00;;;;;;4125526;28;20744;-65
2021/05/31 03:20:23;;;;;;;3.05;1.92;;;16.10;68.90;;;;;;4124756;28;20880;-67
2021/05/31 03:22:25;;;;;;;7.93;1.90;;;16.10;68.80;;;;;;4126111;28;20045;-70
2021/05/31 03:24:27;;;;;;;6.07;2.00;;;16.20;68.70;;;;;;4124892;28;20307;-70
2021/05/31 03:26:29;;;;;;;4.82;1.67;;;16.20;68.60;;;;;;4126078;28;20048;-71
2021/05/31 03:28:35;;;;;;;6.20;2.03;;;16.20;68.50;;;;;;4122713;28;20041;-65
2021/05/31 03:30:37;;;;;;;24.38;2.90;;;16.30;68.50;;;;;;4126390;28;20213;-67
2021/05/31 03:32:40;;;;;;;15.93;2.95;;;16.30;68.60;;;;;;4127441;28;20041;-64
2021/05/31 03:34:42;;;;;;;18.07;2.47;;;16.40;68.50;;;;;;4126016;28;20086;-65
2021/05/31 03:36:44;;;;;;;7.60;1.70;;;16.40;68.30;;;;;;4124108;28;20279;-66
2021/05/31 03:38:46;;;;;;;8.82;2.08;;;16.50;69.00;;;;;;4122922;28;20045;-64
2021/05/31 03:40:48;;;;;;;10.45;1.83;;;16.50;68.20;;;;;;4122169;28;20053;-65
2021/05/31 03:42:51;;;;;;;8.68;1.90;;;16.50;68.10;;;;;;4126347;28;20433;-65
2021/05/31 03:44:53;;;;;;;;;;;16.50;67.90;;;;;;4124514;28;20084;-65
2021/05/31 03:46:55;;;;;;;6.47;1.98;;;16.60;67.90;;;;;;4125732;28;20848;-66
2021/05/31 03:48:57;;;;;;;6.70;2.05;;;16.60;68.00;;;;;;4125081;28;20041;-67
2021/05/31 03:51:09;;;;;;;3.80;1.80;;;16.60;67.80;;;;;;4125617;28;20092;-64
2021/05/31 03:53:11;;;;;;;6.95;1.92;;;16.70;67.90;;;;;;4121572;28;20414;-64
2021/05/31 03:55:13;;;;;;;5.72;1.92;;;16.70;67.80;;;;;;4124110;28;20022;-62
2021/05/31 03:57:16;;;;;;;3.10;1.45;;;16.70;67.70;;;;;;4124799;28;20060;-63
2021/05/31 03:59:19;;;;;;;5.05;1.52;;;16.80;67.60;;;;;;4125030;28;20370;-62
2021/05/31 04:01:21;;;;;;;5.30;1.90;;;16.80;67.70;;;;;;4125302;28;20249;-65
2021/05/31 04:03:24;;;;;;;4.20;1.65;;;16.90;67.70;;;;;;4123972;28;20066;-65
2021/05/31 04:05:30;;;;;;;3.58;1.88;;;16.90;67.60;;;;;;4123877;28;20053;-66
2021/05/31 04:12:14;;;;;;;12.85;2.45;;;17.10;67.50;;;;;;4125767;28;20048;-65
2021/05/31 04:14:18;;;;;;;4.20;1.52;;;17.10;67.40;;;;;;4125545;28;20151;-65
2021/05/31 04:16:20;;;;;;;7.80;2.40;;;17.20;67.30;;;;;;4125290;28;20214;-66
2021/05/31 04:18:22;;;;;;;10.23;2.15;;;17.20;67.10;;;;;;4120988;28;20140;-67
2021/05/31 04:20:24;;;;;;;5.40;1.50;;;17.20;66.90;;;;;;4125753;28;20735;-66
2021/05/31 04:22:27;;;;;;;7.05;2.08;;;17.30;66.70;;;;;;4125260;28;20033;-65
2021/05/31 04:24:29;;;;;;;8.50;1.85;;;17.30;66.60;;;;;;4124555;28;20783;-65
2021/05/31 04:26:33;;;;;;;5.72;1.73;;;17.40;66.60;;;;;;4127161;28;20348;-65
2021/05/31 04:28:35;;;;;;;7.70;2.08;;;17.40;66.50;;;;;;4121425;28;20218;-65
2021/05/31 04:30:37;;;;;;;3.13;1.95;;;17.50;66.30;;;;;;4125199;28;20048;-61
2021/05/31 04:32:39;;;;;;;9.10;2.00;;;17.50;66.20;;;;;;4124561;28;20139;-64
2021/05/31 04:34:41;;;;;;;7.72;2.13;;;17.50;66.20;;;;;;4123730;28;20025;-66
2021/05/31 04:36:43;;;;;;;23.50;3.63;;;17.60;66.20;;;;;;4122636;28;20498;-63
2021/05/31 04:38:46;;;;;;;14.63;2.47;;;17.70;66.20;;;;;;4124483;28;20049;-63
2021/05/31 04:40:48;;;;;;;9.75;2.50;;;17.70;66.30;;;;;;4121191;28;20184;-63
2021/05/31 04:42:50;;;;;;;7.13;2.50;;;17.80;66.20;;;;;;4126242;28;20052;-64
2021/05/31 04:44:52;;;;;;;11.75;2.00;;;17.80;66.10;;;;;;4123406;28;20719;-63
2021/05/31 04:46:57;;;;;;;6.22;2.30;;;17.90;66.10;;;;;;4121511;28;20052;-65
2021/05/31 04:49:03;;;;;;;7.75;2.42;;;17.90;66.00;;;;;;4124814;28;20527;-68
2021/05/31 04:51:06;;;;;;;12.48;2.35;;;18.00;65.90;;;;;;4124997;28;20037;-68
2021/05/31 04:53:08;;;;;;;4.30;1.73;;;18.00;65.70;;;;;;4121845;28;20164;-67
2021/05/31 04:55:16;;;;;;;4.03;1.50;;;18.10;65.70;;;;;;4124650;28;20026;-66
2021/05/31 04:57:22;;;;;;;6.82;1.98;;;18.10;65.60;;;;;;4122797;28;20803;-65
2021/05/31 04:59:24;;;;;;;3.38;1.52;;;18.20;65.50;;;;;;4124999;28;20049;-64
2021/05/31 05:01:27;;;;;;;5.38;1.48;;;18.20;65.50;;;;;;4125704;28;20043;-65
2021/05/31 05:03:32;;;;;;;5.53;1.80;;;18.30;65.50;;;;;;4122065;28;20042;-66
2021/05/31 05:05:34;;;;;;;3.92;1.88;;;18.30;65.40;;;;;;4118631;28;20118;-66
2021/05/31 05:07:44;;;;;;;6.95;1.83;;;18.30;65.20;;;;;;4118049;28;20034;-66
2021/05/31 05:09:46;;;;;;;5.22;1.73;;;18.40;65.40;;;;;;4120670;28;20811;-68
2021/05/31 05:11:48;;;;;;;4.03;2.00;;;18.40;65.10;;;;;;4118656;28;20117;-68
2021/05/31 05:13:52;;;;;;;14.27;2.00;;;18.50;65.20;;;;;;4122391;28;20561;-68
2021/05/31 05:15:54;;;;;;;3.78;1.92;;;18.50;65.20;;;;;;4126195;28;20376;-68
2021/05/31 05:17:57;;;;;;;5.88;1.80;;;18.50;65.10;;;;;;4131236;28;20112;-66
2021/05/31 05:19:59;;;;;;;;;;;18.60;65.10;;;;;;4131130;28;20268;-67
2021/05/31 05:22:01;;;;;;;6.43;1.83;;;18.60;65.00;;;;;;4130497;28;19917;-66
2021/05/31 05:24:03;;;;;;;5.00;2.10;;;18.60;65.00;;;;;;4131657;28;20189;-67
2021/05/31 05:26:06;;;;;;;4.65;1.60;;;18.60;64.90;;;;;;4121982;28;20365;-67
2021/05/31 05:28:08;;;;;;;4.70;1.98;;;18.70;65.00;;;;;;4120879;28;20037;-69
2021/05/31 05:30:12;;;;;;;7.95;2.15;;;18.70;65.00;;;;;;4124540;28;20049;-68
2021/05/31 05:32:14;;;;;;;7.53;1.92;;;18.70;64.90;;;;;;4122401;28;20535;-70
2021/05/31 05:34:19;;;;;;;8.23;2.05;;;18.70;64.90;;;;;;4125786;28;20034;-68
2021/05/31 05:38:59;;;;;;;5.03;1.85;;;18.70;64.90;;;;;;4127033;28;20216;-67
2021/05/31 05:49:25;;;;;;;4.72;1.75;;;18.70;65.10;;;;;;4125042;28;20411;-66
2021/05/31 05:51:27;;;;;;;6.63;2.00;;;18.70;65.10;;;;;;4121155;28;20037;-67
2021/05/31 05:53:29;;;;;;;8.18;1.77;;;18.70;65.20;;;;;;4122401;28;20521;-64
2021/05/31 05:55:31;;;;;;;5.47;1.92;;;18.70;65.30;;;;;;4123276;28;20465;-63
2021/05/31 05:57:34;;;;;;;7.47;2.08;;;18.70;65.50;;;;;;4122290;28;20045;-66
2021/05/31 05:59:36;;;;;;;8.43;2.38;;;18.70;65.40;;;;;;4123139;28;21403;-65
2021/05/31 06:01:38;;;;;;;5.78;2.28;;;18.70;65.70;;;;;;4122124;28;20534;-66
2021/05/31 06:03:41;;;;;;;6.78;2.22;;;18.70;65.80;;;;;;4122319;28;20050;-67
2021/05/31 06:05:43;;;;;;;3.03;1.88;;;18.70;66.00;;;;;;4120757;28;20034;-66
2021/05/31 06:07:46;;;;;;;5.43;2.17;;;18.70;65.90;;;;;;4123920;28;20120;-64
2021/05/31 06:09:48;;;;;;;6.60;2.42;;;18.70;65.90;;;;;;4122000;28;20830;-63
2021/05/31 06:11:50;;;;;;;6.15;2.22;;;18.70;65.90;;;;;;4119791;28;20038;-63
2021/05/31 06:13:52;;;;;;;5.22;1.85;;;18.70;65.90;;;;;;4120207;28;20449;-64
2021/05/31 06:15:59;;;;;;;6.43;1.77;;;18.70;65.80;;;;;;4122509;28;20064;-65
2021/05/31 06:18:01;;;;;;;9.35;2.20;;;18.70;65.80;;;;;;4120288;28;20042;-66
2021/05/31 06:20:05;;;;;;;6.65;2.40;;;18.70;65.80;;;;;;4122235;28;20045;-66
2021/05/31 06:22:07;;;;;;;11.88;2.10;;;18.70;65.70;;;;;;4122915;28;20030;-66
2021/05/31 06:24:11;;;;;;;10.18;2.75;;;18.70;65.80;;;;;;4122375;28;20065;-67
2021/05/31 06:26:14;;;;;;;7.68;2.67;;;18.70;65.90;;;;;;4123420;28;20518;-65
2021/05/31 06:28:16;;;;;;;6.65;2.13;;;18.70;66.00;;;;;;4121817;28;20055;-65
2021/05/31 06:30:19;;;;;;;8.70;2.38;;;18.70;66.00;;;;;;4120870;28;20363;-64
2021/05/31 06:32:21;;;;;;;4.97;1.88;;;18.70;66.00;;;;;;4123116;28;20410;-65
2021/05/31 06:34:23;;;;;;;7.15;1.90;;;18.70;66.10;;;;;;4124885;28;20053;-66
2021/05/31 06:36:26;;;;;;;5.07;1.83;;;18.70;66.20;;;;;;4121295;28;20218;-67
2021/05/31 06:38:28;;;;;;;10.38;2.20;;;18.70;66.20;;;;;;4122147;28;20112;-66
2021/05/31 06:40:30;;;;;;;10.82;2.03;;;18.70;66.20;;;;;;4125959;28;20448;-65
2021/05/31 06:42:33;;;;;;;7.53;2.33;;;18.70;66.20;;;;;;4122781;28;20114;-66
2021/05/31 06:44:36;;;;;;;5.40;2.10;;;18.70;66.20;;;;;;4120876;28;20584;-65
2021/05/31 06:46:38;;;;;;;4.93;2.00;;;18.70;66.30;;;;;;4122884;28;20187;-65
2021/05/31 06:48:40;;;;;;;6.28;1.85;;;18.70;66.30;;;;;;4114089;28;20029;-64
2021/05/31 06:50:45;;;;;;;6.17;1.87;;;18.70;66.20;;;;;;4113019;28;20037;-63
2021/05/31 06:52:47;;;;;;;4.40;1.80;;;18.70;66.30;;;;;;4115385;28;20033;-65
2021/05/31 06:54:49;;;;;;;6.73;2.40;;;18.70;66.30;;;;;;4117588;28;20485;-64
2021/05/31 06:56:51;;;;;;;6.32;1.80;;;18.70;66.30;;;;;;4118759;28;20360;-62
2021/05/31 06:58:54;;;;;;;6.00;1.77;;;18.70;66.30;;;;;;4119343;28;20048;-63
2021/05/31 07:00:56;;;;;;;8.13;2.47;;;18.70;66.20;;;;;;4124288;28;21109;-64
2021/05/31 07:02:58;;;;;;;2.83;1.83;;;18.70;66.20;;;;;;4121157;28;20460;-65
2021/05/31 07:05:00;;;;;;;8.68;2.20;;;18.70;66.30;;;;;;4123429;28;20049;-67
2021/05/31 07:07:03;;;;;;;9.27;2.17;;;18.80;66.90;;;;;;4123308;28;20172;-71
2021/05/31 07:09:05;;;;;;;5.00;2.17;;;18.80;67.00;;;;;;4112110;28;20136;-68
2021/05/31 07:11:17;;;;;;;5.88;2.28;;;18.80;66.70;;;;;;4122687;28;21409;-67
2021/05/31 07:13:20;;;;;;;6.85;2.15;;;18.80;66.80;;;;;;4127196;28;20358;-67
2021/05/31 07:15:23;;;;;;;6.25;2.83;;;18.80;66.80;;;;;;4123813;28;20586;-67
2021/05/31 07:17:26;;;;;;;6.70;2.38;;;18.80;66.80;;;;;;4127597;28;20054;-66
2021/05/31 07:19:28;;;;;;;4.65;1.98;;;18.80;66.80;;;;;;4124858;28;20812;-65
2021/05/31 07:21:31;;;;;;;11.50;2.65;;;18.80;66.90;;;;;;4124329;28;20164;-65
2021/05/31 07:23:36;;;;;;;8.68;2.28;;;18.80;66.90;;;;;;4121952;28;20457;-64
2021/05/31 07:25:39;;;;;;;11.57;2.55;;;18.80;67.00;;;;;;4127292;28;20529;-65
2021/05/31 07:27:42;;;;;;;8.40;2.70;;;18.80;67.00;;;;;;4122797;28;20628;-64
2021/05/31 07:29:44;;;;;;;6.53;2.25;;;18.80;66.90;;;;;;4123257;28;20172;-64
2021/05/31 07:31:47;;;;;;;7.03;2.38;;;18.80;66.80;;;;;;4116074;28;20123;-65
2021/05/31 07:33:49;;;;;;;5.35;1.95;;;18.80;66.90;;;;;;4124533;28;20095;-66
2021/05/31 07:35:53;;;;;;;6.45;2.05;;;18.80;66.80;;;;;;4125076;28;20563;-62
2021/05/31 07:37:59;;;;;;;15.45;2.15;;;18.80;66.90;;;;;;4121172;28;20033;-65
2021/05/31 07:40:01;;;;;;;9.52;2.70;;;18.80;67.00;;;;;;4127103;28;20402;-65
2021/05/31 07:42:04;;;;;;;7.35;2.38;;;18.80;67.00;;;;;;4122467;28;20124;-63
2021/05/31 07:44:06;;;;;;;8.50;2.42;;;18.70;67.00;;;;;;4124651;28;20366;-63
2021/05/31 07:46:09;;;;;;;9.13;2.40;;;18.70;67.00;;;;;;4125066;28;20021;-63
2021/05/31 07:48:11;;;;;;;4.38;2.00;;;18.70;67.10;;;;;;4125169;28;20045;-64
2021/05/31 07:50:14;;;;;;;6.65;2.00;;;18.70;67.70;;;;;;4122952;28;20319;-65
2021/05/31 07:52:19;;;;;;;6.25;2.35;;;18.70;67.00;;;;;;4128629;28;20442;-66
2021/05/31 07:54:25;;;;;;;12.90;2.60;;;18.70;66.90;;;;;;4121160;28;20044;-63
2021/05/31 07:56:28;;;;;;;7.75;2.25;;;18.70;66.80;;;;;;4125988;28;20095;-67
2021/05/31 07:58:30;;;;;;;5.20;2.13;;;18.70;66.80;;;;;;4125059;28;20033;-67
2021/05/31 08:00:32;;;;;;;6.60;2.60;;;18.70;66.80;;;;;;4125738;28;20045;-67
2021/05/31 08:02:35;;;;;;;4.22;2.05;;;18.60;66.70;;;;;;4122331;28;20072;-64
2021/05/31 08:04:40;;;;;;;6.47;1.98;;;18.60;66.60;;;;;;4126244;28;20030;-65
2021/05/31 08:06:42;;;;;;;5.82;2.25;;;18.60;66.50;;;;;;4122743;28;20207;-66
2021/05/31 08:08:45;;;;;;;6.00;1.90;;;18.60;66.50;;;;;;4121794;28;20100;-64
2021/05/31 08:10:47;;;;;;;7.85;2.40;;;18.60;66.40;;;;;;4121483;28;20036;-65
2021/05/31 08:12:53;;;;;;;3.97;1.90;;;18.60;66.50;;;;;;4127575;28;20607;-65
2021/05/31 08:14:58;;;;;;;5.05;2.20;;;18.60;66.50;;;;;;4122533;28;20081;-66
2021/05/31 08:17:01;;;;;;;7.20;2.28;;;18.60;66.50;;;;;;4126100;28;20025;-64
2021/05/31 08:19:03;;;;;;;10.05;2.50;;;18.60;66.90;;;;;;4127231;28;20623;-62
2021/05/31 08:21:05;;;;;;;10.48;2.20;;;18.60;67.10;;;;;;4122639;28;20408;-63
2021/05/31 08:23:08;;;;;;;5.28;2.20;;;18.60;67.10;;;;;;4122369;28;20079;-65
2021/05/31 08:25:14;;;;;;;8.85;2.67;;;18.60;67.10;;;;;;4127028;28;20486;-65
2021/05/31 08:27:16;;;;;;;7.45;2.22;;;18.60;67.00;;;;;;4120989;28;20577;-64
2021/05/31 08:29:20;;;;;;;10.13;2.42;;;18.60;67.00;;;;;;4124021;28;20072;-65
2021/05/31 08:31:22;;;;;;;8.57;2.20;;;18.60;67.00;;;;;;4126703;28;20055;-63
2021/05/31 08:33:24;;;;;;;6.03;1.90;;;18.60;66.90;;;;;;4124923;28;20536;-62
2021/05/31 08:35:47;;;;;;;10.02;2.00;;;18.60;66.80;;;;;;4123910;28;20053;-64
2021/05/31 08:37:49;;;;;;;7.03;2.00;;;18.60;66.70;;;;;;4121943;28;20033;-64
2021/05/31 08:39:54;;;;;;;10.07;2.50;;;18.60;66.70;;;;;;4126588;28;20087;-63
2021/05/31 08:41:57;;;;;;;6.55;2.40;;;18.60;66.80;;;;;;4123044;28;20533;-62
2021/05/31 08:44:26;;;;;;;8.63;2.30;;;18.60;67.20;;;;;;4125042;28;20048;-63
2021/05/31 08:46:35;;;;;;;7.25;2.42;;;18.60;66.80;;;;;;4124324;28;20073;-62
2021/05/31 08:48:44;;;;;;;4.88;1.88;;;18.60;66.70;;;;;;4110691;28;20045;-63
2021/05/31 08:50:50;;;;;;;7.60;2.08;;;18.60;66.70;;;;;;4110426;28;20148;-62
2021/05/31 08:52:53;;;;;;;5.22;2.20;;;18.60;66.50;;;;;;4121892;28;20042;-62
2021/05/31 08:54:55;;;;;;;6.32;2.70;;;18.60;66.50;;;;;;4123273;28;20550;-63
2021/05/31 08:56:57;;;;;;;16.58;2.75;;;18.60;66.50;;;;;;4122597;28;20064;-62
2021/05/31 08:59:00;;;;;;;6.18;2.50;;;18.60;66.50;;;;;;4122436;28;20156;-60
2021/05/31 09:01:03;;;;;;;8.63;2.20;;;18.60;66.50;;;;;;4122455;28;20619;-58
2021/05/31 09:03:10;;;;;;;7.82;2.60;;;18.60;66.40;;;;;;4124150;28;20303;-59
2021/05/31 09:05:13;;;;;;;10.90;2.85;;;18.60;66.40;;;;;;4111551;28;20049;-59
2021/05/31 09:07:16;;;;;;;8.17;3.03;;;18.50;65.80;;;;;;4123356;28;20469;-60
2021/05/31 09:09:18;;;;;;;3.08;2.08;;;18.50;65.00;;;;;;4124045;28;20274;-60
2021/05/31 09:11:21;;;;;;;5.20;2.70;;;18.50;64.60;;;;;;4127377;28;20041;-60
2021/05/31 09:13:29;;;;;;;5.32;2.70;;;18.50;64.60;;;;;;4126576;28;20057;-60
2021/05/31 09:15:32;;;;;;;4.53;2.50;;;18.40;64.70;;;;;;4123721;28;20049;-60
2021/05/31 09:17:35;;;;;;;5.32;2.47;;;18.40;64.80;;;;;;4125110;28;20167;-60
2021/05/31 09:19:48;;;;;;;4.88;2.63;;;18.40;64.80;;;;;;4131987;28;20075;-59
2021/05/31 09:21:50;;;;;;;3.33;1.92;;;18.40;64.80;;;;;;4131553;28;20049;-59
2021/05/31 09:24:14;;;;;;;4.78;2.38;;;18.30;64.70;;;;;;4130910;28;20136;-59
2021/05/31 09:26:16;;;;;;;7.50;2.90;;;18.30;64.70;;;;;;4130226;28;20305;-60
2021/05/31 09:28:18;;;;;;;5.63;3.40;;;18.30;64.70;;;;;;4132049;28;20459;-61
2021/05/31 09:30:30;;;;;;;5.40;2.90;;;18.20;64.60;;;;;;4125101;28;20280;-60
2021/05/31 09:32:33;;;;;;;7.63;3.15;;;18.20;64.60;;;;;;4123801;28;20064;-63
2021/05/31 09:34:35;;;;;;;9.87;3.80;;;18.20;64.40;;;;;;4115586;28;20515;-67
2021/05/31 09:36:52;;;;;;;6.80;3.30;;;18.20;64.40;;;;;;4117259;28;20847;-68
2021/05/31 09:38:55;;;;;;;5.45;3.20;;;18.20;64.70;;;;;;4124136;28;20502;-69
2021/05/31 09:40:57;;;;;;;6.65;3.45;;;18.20;64.90;;;;;;4124634;28;20316;-68
2021/05/31 09:43:02;;;;;;;8.13;3.40;;;18.20;65.00;;;;;;4125656;28;20052;-64
2021/05/31 09:45:07;;;;;;;11.95;3.55;;;18.20;65.00;;;;;;4127132;28;20320;-62
2021/05/31 09:47:11;;;;;;;9.10;3.30;;;18.20;65.00;;;;;;4127415;28;20111;-64
2021/05/31 09:49:14;;;;;;;7.10;3.10;;;18.20;65.00;;;;;;4125060;28;20044;-64
2021/05/31 09:51:16;;;;;;;6.22;3.13;;;18.20;65.00;;;;;;4112754;28;20601;-64
2021/05/31 09:53:19;;;;;;;6.07;3.28;;;18.20;65.00;;;;;;4122882;28;20038;-63
2021/05/31 09:55:30;;;;;;;6.00;3.58;;;18.20;64.90;;;;;;4126154;28;20049;-63
2021/05/31 09:57:37;;;;;;;8.65;3.15;;;18.20;64.80;;;;;;4124125;28;20545;-64
2021/05/31 09:59:40;;;;;;;6.28;3.60;;;18.20;64.80;;;;;;4121018;28;20367;-66
2021/05/31 10:01:43;;;;;;;5.18;3.20;;;18.20;64.80;;;;;;4126469;28;20499;-63
2021/05/31 10:04:40;;;;;;;5.38;3.28;;;18.20;64.90;;;;;;4123291;28;20260;-62
2021/05/31 10:10:18;;;;;;;5.35;3.20;;;18.10;65.00;;;;;;4124263;28;20046;-63
2021/05/31 10:12:20;;;;;;;6.15;3.30;;;18.10;65.20;;;;;;4126033;28;20744;-63
2021/05/31 10:14:23;;;;;;;6.57;3.38;;;18.10;65.20;;;;;;4124430;28;20045;-64
2021/05/31 10:16:26;;;;;;;7.80;3.70;;;18.10;65.30;;;;;;4127172;28;20030;-63
2021/05/31 10:18:30;;;;;;;4.85;2.80;;;18.10;65.20;;;;;;4124274;28;20179;-62
2021/05/31 10:20:36;;;;;;;5.45;3.17;;;18.10;65.20;;;;;;4125951;28;20475;-61
2021/05/31 10:22:39;;;;;;;5.97;3.15;;;18.10;65.30;;;;;;4125986;28;20138;-62
2021/05/31 10:24:41;;;;;;;4.90;3.10;;;18.00;65.30;;;;;;4123315;28;20043;-65
2021/05/31 10:26:44;;;;;;;5.97;3.20;;;18.00;65.20;;;;;;4124358;28;20391;-63
2021/05/31 10:28:47;;;;;;;5.53;3.47;;;18.00;65.20;;;;;;4125066;28;20033;-63
2021/05/31 10:30:59;;;;;;;5.53;3.15;;;18.00;65.20;;;;;;4125323;28;20635;-62
2021/05/31 10:33:16;;;;;;;6.22;3.22;;;18.00;65.30;;;;;;4125691;28;20384;-64
2021/05/31 10:35:24;;;;;;;5.82;3.28;;;18.00;65.30;;;;;;4122081;28;20065;-63
2021/05/31 10:37:30;;;;;;;8.18;3.22;;;18.00;65.40;;;;;;4125953;28;20025;-64
2021/05/31 10:39:32;;;;;;;4.78;3.20;;;18.00;65.30;;;;;;4121760;28;20104;-64
2021/05/31 10:41:39;;;;;;;4.55;2.70;;;18.00;65.40;;;;;;4126400;28;20415;-65
2021/05/31 10:43:59;;;;;;;4.90;3.00;;;18.00;65.30;;;;;;4125725;28;20045;-64
2021/05/31 10:46:04;;;;;;;5.05;3.15;;;17.90;65.30;;;;;;4125592;28;20123;-65
2021/05/31 10:48:19;;;;;;;6.90;3.30;;;17.90;65.40;;;;;;4125576;28;20049;-67
2021/05/31 10:50:27;;;;;;;4.50;3.25;;;17.90;65.40;;;;;;4128128;28;20033;-68
2021/05/31 10:52:29;;;;;;;4.35;3.20;;;17.90;65.30;;;;;;4128300;28;20910;-68
2021/05/31 10:54:36;;;;;;;5.50;3.28;;;17.90;65.30;;;;;;4126517;28;20077;-64
2021/05/31 10:56:41;;;;;;;6.25;3.08;;;17.90;65.30;;;;;;4127600;28;20041;-65
2021/05/31 10:58:49;;;;;;;4.80;2.80;;;17.90;65.30;;;;;;4127992;28;20110;-66
2021/05/31 11:01:11;;;;;;;7.43;2.78;;;17.90;65.30;;;;;;4127249;28;20049;-66
2021/05/31 11:03:14;;;;;;;5.80;2.72;;;17.90;65.40;;;;;;4124480;28;20167;-69
2021/05/31 11:05:16;;;;;;;5.40;2.75;;;17.80;65.40;;;;;;4127564;28;20214;-66
2021/05/31 11:07:28;;;;;;;5.60;3.30;;;17.80;65.40;;;;;;4129341;28;20025;-66